Time;durP1;ratioP1;P1;durP2;ratioP2;P2;SDS_P1;SDS_P2;PMS_P1;PMS_P2;Temp;Humidity;BMP_temperature;BMP_pressure;BME280_temperature;BME280_humidity;BME280_pressure;Samples;Min_cycle;Max_cycle;Signal;HPM_P1;HPM_P2
2021/11/15 00:01:15;;;;;;;42.97;16.50;;;7.60;99.90;;;;;;5081946;28;20206;-87
2021/11/15 00:03:44;;;;;;;49.08;18.15;;;7.60;99.90;;;;;;5083909;28;20182;-87
2021/11/15 00:06:10;;;;;;;33.42;15.13;;;7.60;99.90;;;;;;5085883;28;20679;-87
2021/11/15 00:08:36;;;;;;;40.83;16.65;;;7.60;99.90;;;;;;5066383;28;20199;-88
2021/11/15 00:11:03;;;;;;;39.37;16.97;;;7.20;99.90;;;;;;5065375;28;20184;-87
2021/11/15 00:13:28;;;;;;;47.97;19.08;;;7.20;99.90;;;;;;5084939;28;20176;-89
2021/11/15 00:15:54;;;;;;;37.37;16.43;;;7.10;99.90;;;;;;5071218;28;20250;-87
2021/11/15 00:18:19;;;;;;;42.40;17.27;;;6.90;99.90;;;;;;5094638;28;20179;-87
2021/11/15 00:20:45;;;;;;;30.83;15.47;;;6.80;99.90;;;;;;5100087;28;20184;-87
2021/11/15 00:23:13;;;;;;;44.10;16.07;;;6.90;99.90;;;;;;5081594;28;20184;-87
2021/11/15 00:25:39;;;;;;;44.80;18.05;;;6.80;99.90;;;;;;5081080;28;20198;-87
2021/11/15 00:28:07;;;;;;;44.97;16.97;;;6.70;99.90;;;;;;5098446;28;20235;-86
2021/11/15 00:30:33;;;;;;;41.28;16.20;;;6.80;99.90;;;;;;5098842;28;20156;-86
2021/11/15 00:33:01;;;;;;;41.83;16.60;;;6.80;99.90;;;;;;5099135;28;20175;-87
2021/11/15 00:35:27;;;;;;;44.00;18.63;;;6.80;99.90;;;;;;5098479;28;20172;-88
2021/11/15 00:37:52;;;;;;;40.90;18.30;;;6.80;99.90;;;;;;5098720;28;20202;-88
2021/11/15 00:40:20;;;;;;;48.75;16.20;;;6.80;99.90;;;;;;5098879;28;20195;-87
2021/11/15 00:42:49;;;;;;;41.28;16.35;;;6.90;99.90;;;;;;5092645;28;20266;-88
2021/11/15 00:45:16;;;;;;;49.47;19.33;;;6.90;99.90;;;;;;5081493;28;20199;-88
2021/11/15 00:47:43;;;;;;;39.20;17.60;;;7.00;99.90;;;;;;5078720;28;20184;-88
2021/11/15 00:50:11;;;;;;;45.25;17.58;;;6.90;99.90;;;;;;5078420;28;20231;-86
2021/11/15 00:52:37;;;;;;;41.45;17.80;;;6.90;99.90;;;;;;5079712;28;20175;-86
2021/11/15 00:55:15;;;;;;;50.95;17.45;;;6.80;99.90;;;;;;5078413;28;20192;-86
2021/11/15 00:57:40;;;;;;;40.50;17.75;;;6.80;99.90;;;;;;5080923;28;20160;-86
2021/11/15 01:00:09;;;;;;;44.77;19.83;;;6.80;99.90;;;;;;5084187;28;20233;-85
2021/11/15 01:02:35;;;;;;;48.90;16.17;;;6.70;99.90;;;;;;5090074;28;20196;-85
2021/11/15 01:05:01;;;;;;;46.17;18.80;;;6.70;99.90;;;;;;5082547;28;20766;-86
2021/11/15 01:07:26;;;;;;;46.03;16.40;;;6.70;99.90;;;;;;5079672;28;20675;-86
2021/11/15 01:09:52;;;;;;;43.77;16.03;;;6.60;99.90;;;;;;5080880;28;20263;-85
2021/11/15 01:12:17;;;;;;;43.30;18.17;;;6.60;99.90;;;;;;5079950;28;20183;-85
2021/11/15 01:14:46;;;;;;;40.63;16.20;;;6.70;99.90;;;;;;5080137;28;20215;-86
2021/11/15 01:17:12;;;;;;;47.00;18.45;;;6.70;99.90;;;;;;5078162;28;20430;-87
2021/11/15 01:19:38;;;;;;;44.03;17.30;;;6.70;99.90;;;;;;5080972;28;20180;-86
2021/11/15 01:22:04;;;;;;;44.37;16.83;;;6.70;99.90;;;;;;5097993;28;20200;-85
2021/11/15 01:24:30;;;;;;;39.22;16.90;;;6.70;99.90;;;;;;5096646;28;20203;-86
2021/11/15 01:26:55;;;;;;;46.45;19.33;;;6.70;99.90;;;;;;5063170;28;20195;-87
2021/11/15 01:29:21;;;;;;;38.43;17.40;;;7.00;99.90;;;;;;5079350;28;20172;-86
2021/11/15 01:31:47;;;;;;;41.60;17.20;;;7.00;99.90;;;;;;5077782;28;20224;-87
2021/11/15 01:34:13;;;;;;;43.20;16.60;;;6.90;99.90;;;;;;5076316;28;20182;-87
2021/11/15 01:36:38;;;;;;;44.97;16.10;;;7.00;99.90;;;;;;5075401;28;20214;-87
2021/11/15 01:39:05;;;;;;;38.83;14.80;;;6.90;99.90;;;;;;5077750;28;20817;-87
2021/11/15 01:41:31;;;;;;;35.30;17.05;;;7.10;99.90;;;;;;5076617;28;20261;-86
2021/11/15 01:43:58;;;;;;;36.38;15.65;;;6.90;99.90;;;;;;5076098;28;20176;-86
2021/11/15 01:46:23;;;;;;;33.20;15.85;;;6.70;99.90;;;;;;5078892;28;20178;-85
2021/11/15 01:48:49;;;;;;;46.57;16.70;;;6.80;99.90;;;;;;5078322;28;20251;-86
2021/11/15 01:51:15;;;;;;;32.90;16.73;;;6.80;99.90;;;;;;5077651;28;20175;-87
2021/11/15 01:53:41;;;;;;;32.30;13.55;;;6.70;99.90;;;;;;5078254;28;20243;-86
2021/11/15 01:56:07;;;;;;;39.23;14.90;;;6.70;99.90;;;;;;5079029;28;20212;-86
2021/11/15 01:58:33;;;;;;;38.03;15.73;;;6.70;99.90;;;;;;5077092;28;20421;-86
2021/11/15 02:01:00;;;;;;;31.35;15.05;;;6.70;99.90;;;;;;5077538;28;20462;-84
2021/11/15 02:03:28;;;;;;;36.60;15.50;;;6.70;99.90;;;;;;5076113;28;20168;-86
2021/11/15 02:05:54;;;;;;;40.25;17.00;;;6.80;99.90;;;;;;5076427;28;20676;-86
2021/11/15 02:08:20;;;;;;;40.80;16.40;;;6.80;99.90;;;;;;5080718;28;20627;-86
2021/11/15 02:10:46;;;;;;;42.20;16.70;;;7.00;99.90;;;;;;5078620;28;20198;-86
2021/11/15 02:13:22;;;;;;;36.53;15.60;;;7.10;99.90;;;;;;5078582;28;20535;-86
2021/11/15 02:15:51;;;;;;;45.35;15.68;;;7.10;99.90;;;;;;5080278;28;20211;-85
2021/11/15 02:18:17;;;;;;;33.47;14.85;;;7.00;99.90;;;;;;5079911;28;20195;-85
2021/11/15 02:20:50;;;;;;;32.97;14.52;;;6.90;99.90;;;;;;5066165;28;20562;-85
2021/11/15 02:23:17;;;;;;;39.47;16.27;;;6.80;99.90;;;;;;5084870;28;20169;-87
2021/11/15 02:25:45;;;;;;;35.70;15.52;;;6.70;99.90;;;;;;5084846;28;20195;-86
2021/11/15 02:28:11;;;;;;;38.50;14.45;;;7.00;99.90;;;;;;5084368;28;20176;-86
2021/11/15 02:30:37;;;;;;;43.63;18.17;;;7.10;99.90;;;;;;5067829;28;20187;-86
2021/11/15 02:33:03;;;;;;;48.67;19.20;;;7.10;99.90;;;;;;5087464;28;20183;-86
2021/11/15 02:35:29;;;;;;;33.83;17.17;;;7.00;99.90;;;;;;5087931;28;20278;-86
2021/11/15 02:37:57;;;;;;;42.92;16.35;;;7.00;99.90;;;;;;5087823;28;20160;-85
2021/11/15 02:40:25;;;;;;;44.35;15.45;;;7.20;99.90;;;;;;5089423;28;20161;-87
2021/11/15 02:42:52;;;;;;;37.40;15.93;;;7.20;99.90;;;;;;5086593;28;20195;-86
2021/11/15 02:45:20;;;;;;;37.00;16.35;;;7.20;99.90;;;;;;5087478;28;20207;-85
2021/11/15 02:47:46;;;;;;;39.42;16.98;;;7.10;99.90;;;;;;5096891;28;20148;-84
2021/11/15 02:50:15;;;;;;;42.08;17.67;;;7.00;99.90;;;;;;5097113;28;20193;-86
2021/11/15 02:52:46;;;;;;;27.02;14.88;;;6.90;99.90;;;;;;5096864;28;20171;-86
2021/11/15 02:55:12;;;;;;;32.95;15.90;;;6.90;99.90;;;;;;5086473;28;20229;-87
2021/11/15 02:57:38;;;;;;;47.13;15.55;;;6.90;99.90;;;;;;5077171;28;20160;-86
2021/11/15 03:00:05;;;;;;;39.25;15.90;;;7.10;99.90;;;;;;5076812;28;20191;-85
2021/11/15 03:02:34;;;;;;;35.45;15.32;;;7.20;99.90;;;;;;5076095;28;20719;-85
2021/11/15 03:05:00;;;;;;;35.50;14.63;;;7.20;99.90;;;;;;5076151;28;20200;-85
2021/11/15 03:07:25;;;;;;;34.23;14.90;;;7.00;99.90;;;;;;5057844;28;20561;-86
2021/11/15 03:09:51;;;;;;;35.00;16.27;;;7.00;99.90;;;;;;5058974;28;20539;-84
2021/11/15 03:12:16;;;;;;;41.20;16.13;;;7.20;99.90;;;;;;5058134;28;20172;-86
2021/11/15 03:14:45;;;;;;;40.97;15.47;;;7.20;99.90;;;;;;5057202;28;20208;-87
2021/11/15 03:17:10;;;;;;;34.60;15.45;;;7.00;99.90;;;;;;5074835;28;20247;-88
2021/11/15 03:19:36;;;;;;;38.57;15.83;;;7.00;99.90;;;;;;5078932;28;20207;-86
2021/11/15 03:22:01;;;;;;;32.73;14.43;;;7.00;99.90;;;;;;5078014;28;20207;-86
2021/11/15 03:24:27;;;;;;;37.47;17.57;;;7.20;99.90;;;;;;5077538;28;20286;-85
2021/11/15 03:26:53;;;;;;;33.90;15.13;;;7.20;99.90;;;;;;5061584;28;20232;-86
2021/11/15 03:29:18;;;;;;;33.03;15.97;;;7.00;99.90;;;;;;5061740;28;20168;-85
2021/11/15 03:31:44;;;;;;;39.90;16.93;;;6.90;99.90;;;;;;5080753;28;20176;-85
2021/11/15 03:34:12;;;;;;;33.87;15.17;;;6.80;99.90;;;;;;5080040;28;20172;-85
2021/11/15 03:36:39;;;;;;;40.58;15.13;;;6.80;99.90;;;;;;5079309;28;20655;-86
2021/11/15 03:39:06;;;;;;;32.65;12.93;;;6.80;99.90;;;;;;5079042;28;20592;-86
2021/11/15 03:41:41;;;;;;;39.22;17.23;;;6.90;99.90;;;;;;5081115;28;20196;-88
2021/11/15 03:44:08;;;;;;;37.42;14.82;;;6.90;99.90;;;;;;5078890;28;20646;-88
2021/11/15 03:46:33;;;;;;;40.83;17.33;;;7.00;99.90;;;;;;5080124;28;20650;-88
2021/11/15 03:49:00;;;;;;;38.30;16.63;;;7.10;99.90;;;;;;5068699;28;20267;-87
2021/11/15 03:51:29;;;;;;;28.10;14.38;;;7.10;99.90;;;;;;5084639;28;20176;-89
2021/11/15 03:53:55;;;;;;;39.03;16.38;;;7.20;99.90;;;;;;5078078;28;20173;-89
2021/11/15 03:56:27;;;;;;;38.47;15.75;;;7.20;99.90;;;;;;5080147;28;20180;-88
2021/11/15 03:58:55;;;;;;;42.65;15.10;;;7.20;99.90;;;;;;5080032;28;20237;-88
2021/11/15 04:01:25;;;;;;;26.45;13.57;;;7.30;99.90;;;;;;5078525;28;20670;-88
2021/11/15 04:03:54;;;;;;;41.20;16.92;;;7.20;99.90;;;;;;5085888;28;20355;-87
2021/11/15 04:06:27;;;;;;;45.00;18.92;;;7.20;99.90;;;;;;5083540;28;20550;-88
2021/11/15 04:09:00;;;;;;;39.28;17.13;;;7.30;99.90;;;;;;5087156;28;20179;-87
2021/11/15 04:11:38;;;;;;;30.77;15.13;;;7.40;99.90;;;;;;5089455;28;20171;-89
2021/11/15 04:14:05;;;;;;;44.53;15.85;;;7.40;99.90;;;;;;5091197;28;20174;-88
2021/11/15 04:16:32;;;;;;;27.73;14.75;;;7.30;99.90;;;;;;5073292;28;20176;-88
2021/11/15 04:19:06;;;;;;;41.28;17.77;;;7.30;99.90;;;;;;5085318;28;20184;-89
2021/11/15 04:21:35;;;;;;;35.70;14.95;;;7.40;99.90;;;;;;5086625;28;20199;-87
2021/11/15 04:24:07;;;;;;;39.70;16.23;;;7.40;99.90;;;;;;5083793;28;20200;-87
2021/11/15 04:26:36;;;;;;;49.35;17.88;;;7.50;99.90;;;;;;5079897;28;20180;-88
2021/11/15 04:29:03;;;;;;;38.05;15.75;;;7.50;99.90;;;;;;5079449;28;20575;-89
2021/11/15 04:31:28;;;;;;;37.92;17.60;;;7.50;99.90;;;;;;5084260;28;20168;-87
2021/11/15 04:34:12;;;;;;;41.17;16.70;;;7.50;99.90;;;;;;5062409;28;20188;-87
2021/11/15 04:36:39;;;;;;;35.97;16.60;;;7.40;99.90;;;;;;5061866;28;20215;-87
2021/11/15 04:39:05;;;;;;;36.47;15.20;;;7.30;99.90;;;;;;5081837;28;20701;-86
2021/11/15 04:41:31;;;;;;;37.87;17.13;;;7.20;99.90;;;;;;5083976;28;20195;-87
2021/11/15 04:43:57;;;;;;;39.43;19.17;;;7.20;99.90;;;;;;5078674;28;20410;-87
2021/11/15 04:46:22;;;;;;;33.70;14.30;;;7.40;99.90;;;;;;5080588;28;20172;-87
2021/11/15 04:48:48;;;;;;;35.17;16.10;;;7.40;99.90;;;;;;5082814;28;20670;-87
2021/11/15 04:51:14;;;;;;;40.53;17.03;;;7.40;99.90;;;;;;5083163;28;20180;-88
2021/11/15 04:53:39;;;;;;;46.37;17.70;;;7.30;99.90;;;;;;5086414;28;20230;-87
2021/11/15 04:56:07;;;;;;;44.17;17.77;;;7.40;99.90;;;;;;5082779;28;20259;-88
2021/11/15 04:58:41;;;;;;;37.88;18.23;;;7.40;99.90;;;;;;5085183;28;20263;-87
2021/11/15 05:01:07;;;;;;;37.08;15.38;;;7.30;99.90;;;;;;5084658;28;20613;-87
2021/11/15 05:03:35;;;;;;;40.53;18.42;;;7.10;99.90;;;;;;5082348;28;20191;-87
2021/11/15 05:06:06;;;;;;;44.42;14.48;;;7.10;99.90;;;;;;5086251;28;20212;-86
2021/11/15 05:08:35;;;;;;;38.17;16.88;;;7.20;99.90;;;;;;5088075;28;20164;-86
2021/11/15 05:11:02;;;;;;;38.45;17.27;;;7.40;99.90;;;;;;5092014;28;20267;-86
2021/11/15 05:13:28;;;;;;;38.47;16.40;;;7.30;99.90;;;;;;5092009;28;20196;-86
2021/11/15 05:15:54;;;;;;;37.50;16.23;;;7.40;99.90;;;;;;5087998;28;20261;-87
2021/11/15 05:18:45;;;;;;;36.63;16.23;;;7.30;99.90;;;;;;5085496;28;20425;-88
2021/11/15 05:21:11;;;;;;;38.80;16.58;;;7.30;99.90;;;;;;5071742;28;20232;-88
2021/11/15 05:23:37;;;;;;;32.80;14.80;;;7.30;99.90;;;;;;5068202;28;20172;-86
2021/11/15 05:26:03;;;;;;;41.42;16.02;;;7.40;99.90;;;;;;5075804;28;20192;-87
2021/11/15 05:28:28;;;;;;;31.15;15.40;;;7.40;99.90;;;;;;5090139;28;20176;-87
2021/11/15 05:30:54;;;;;;;36.43;14.63;;;7.20;99.90;;;;;;5072888;28;20180;-85
2021/11/15 05:33:20;;;;;;;35.47;16.17;;;7.10;99.90;;;;;;5090993;28;20184;-87
2021/11/15 05:35:46;;;;;;;42.33;17.17;;;7.10;99.90;;;;;;5096228;28;20195;-86
2021/11/15 05:38:14;;;;;;;30.03;15.20;;;7.20;99.90;;;;;;5079001;28;20191;-88
2021/11/15 05:40:42;;;;;;;35.92;16.92;;;7.20;99.90;;;;;;5079861;28;20430;-86
2021/11/15 05:43:08;;;;;;;40.33;17.42;;;7.30;99.90;;;;;;5096768;28;20217;-87
2021/11/15 05:45:34;;;;;;;34.03;17.73;;;7.30;99.90;;;;;;5096728;28;20200;-87
2021/11/15 05:47:59;;;;;;;33.83;16.75;;;7.30;99.90;;;;;;5079616;28;20240;-88
2021/11/15 05:50:30;;;;;;;43.07;17.13;;;7.30;99.90;;;;;;5096603;28;20168;-87
2021/11/15 05:52:56;;;;;;;36.95;14.82;;;7.30;99.90;;;;;;5096857;28;20184;-88
2021/11/15 05:55:23;;;;;;;45.25;17.88;;;7.30;99.90;;;;;;5096016;28;20226;-87
2021/11/15 05:57:49;;;;;;;43.05;16.92;;;7.10;99.90;;;;;;5088699;28;20615;-88
2021/11/15 06:00:18;;;;;;;39.88;16.90;;;7.20;99.90;;;;;;5078310;28;20168;-87
2021/11/15 06:02:44;;;;;;;36.65;17.55;;;7.20;99.90;;;;;;5077437;28;20196;-88
2021/11/15 06:05:10;;;;;;;27.67;14.47;;;7.30;99.90;;;;;;5078987;28;20180;-89
2021/11/15 06:07:44;;;;;;;37.65;17.25;;;7.20;99.90;;;;;;5076920;28;20489;-88
2021/11/15 06:10:13;;;;;;;30.52;16.20;;;7.10;99.90;;;;;;5076974;28;20169;-89
2021/11/15 06:12:45;;;;;;;35.50;16.15;;;7.20;99.90;;;;;;5079495;28;20241;-89
2021/11/15 06:15:20;;;;;;;34.90;16.73;;;7.20;99.90;;;;;;5078432;28;20212;-88
2021/11/15 06:17:45;;;;;;;40.97;15.80;;;7.20;99.90;;;;;;5059269;28;20539;-86
2021/11/15 06:20:13;;;;;;;32.37;15.50;;;7.30;99.90;;;;;;5075529;28;20168;-86
2021/11/15 06:22:39;;;;;;;39.65;16.33;;;7.20;99.90;;;;;;5076243;28;20491;-86
2021/11/15 06:25:06;;;;;;;43.40;16.67;;;7.40;99.90;;;;;;5075484;28;20192;-86
2021/11/15 06:27:32;;;;;;;34.10;16.13;;;7.20;99.90;;;;;;5075185;28;20286;-86
2021/11/15 06:29:58;;;;;;;33.53;15.40;;;7.20;99.90;;;;;;5074913;28;20172;-86
2021/11/15 06:32:26;;;;;;;30.87;16.57;;;7.20;99.90;;;;;;5076924;28;20247;-86
2021/11/15 06:34:54;;;;;;;41.17;16.65;;;7.30;99.90;;;;;;5075352;28;20204;-85
2021/11/15 06:37:19;;;;;;;39.38;15.70;;;7.30;99.90;;;;;;5075225;28;20180;-85
2021/11/15 06:39:45;;;;;;;34.57;15.83;;;7.30;99.90;;;;;;5074134;28;20196;-83
2021/11/15 06:42:12;;;;;;;45.57;15.80;;;7.40;99.90;;;;;;5065832;28;20267;-84
2021/11/15 06:44:41;;;;;;;35.35;16.98;;;7.40;99.90;;;;;;5075455;28;20426;-83
2021/11/15 06:47:07;;;;;;;34.63;15.55;;;7.40;99.90;;;;;;5077422;28;20236;-82
2021/11/15 06:49:33;;;;;;;39.67;16.70;;;7.30;99.90;;;;;;5077234;28;20176;-83
2021/11/15 06:51:59;;;;;;;31.15;14.07;;;7.30;99.90;;;;;;5077279;28;20212;-84
2021/11/15 06:54:25;;;;;;;36.73;17.47;;;7.40;99.90;;;;;;5077598;28;20678;-84
2021/11/15 06:56:51;;;;;;;32.87;15.33;;;7.30;99.90;;;;;;5078098;28;20187;-85
2021/11/15 06:59:17;;;;;;;38.17;16.30;;;7.40;99.90;;;;;;5078884;28;20434;-86
2021/11/15 07:01:42;;;;;;;38.63;15.85;;;7.40;99.90;;;;;;5077952;28;20196;-85
2021/11/15 07:04:10;;;;;;;38.17;16.83;;;7.50;99.90;;;;;;5077559;28;20176;-87
2021/11/15 07:06:37;;;;;;;34.95;15.60;;;7.50;99.90;;;;;;5075787;28;20535;-86
2021/11/15 07:09:04;;;;;;;32.53;15.55;;;7.60;99.90;;;;;;5092357;28;20180;-85
2021/11/15 07:11:30;;;;;;;32.92;15.23;;;7.60;99.90;;;;;;5076396;28;20175;-85
2021/11/15 07:13:56;;;;;;;38.50;16.65;;;7.50;99.90;;;;;;5077356;28;20274;-85
2021/11/15 07:16:22;;;;;;;33.17;15.30;;;7.50;99.90;;;;;;5092721;28;20219;-84
2021/11/15 07:18:52;;;;;;;32.08;14.15;;;7.60;99.90;;;;;;5077909;28;20164;-86
2021/11/15 07:21:19;;;;;;;38.83;16.05;;;7.60;99.90;;;;;;5076966;28;20602;-86
2021/11/15 07:23:45;;;;;;;40.58;15.38;;;7.70;99.90;;;;;;5059481;28;20202;-87
2021/11/15 07:26:13;;;;;;;30.83;12.45;;;7.60;99.90;;;;;;5077798;28;20192;-84
2021/11/15 07:28:39;;;;;;;25.70;12.07;;;7.50;99.90;;;;;;5077117;28;20203;-83
2021/11/15 07:31:05;;;;;;;38.53;14.40;;;7.40;99.90;;;;;;5057435;28;20183;-82
2021/11/15 07:33:31;;;;;;;31.37;13.90;;;7.40;99.90;;;;;;5074625;28;20479;-84
2021/11/15 07:36:00;;;;;;;27.35;11.23;;;7.20;99.90;;;;;;5076159;28;20204;-85
2021/11/15 07:38:25;;;;;;;25.85;12.60;;;7.30;99.90;;;;;;5075862;28;20255;-85
2021/11/15 07:40:51;;;;;;;26.50;13.33;;;7.30;99.90;;;;;;5074105;28;20219;-83
2021/11/15 07:43:17;;;;;;;32.30;13.63;;;7.50;99.90;;;;;;5074217;28;20567;-86
2021/11/15 07:45:45;;;;;;;31.58;12.05;;;7.40;99.90;;;;;;5075574;28;20204;-84
2021/11/15 07:48:14;;;;;;;31.80;12.88;;;7.40;99.90;;;;;;5076122;28;20176;-85
2021/11/15 07:50:40;;;;;;;24.20;12.45;;;7.50;99.90;;;;;;5077168;28;20172;-86
2021/11/15 07:53:09;;;;;;;25.33;11.80;;;7.40;99.90;;;;;;5075595;28;20290;-86
2021/11/15 07:55:35;;;;;;;30.13;12.90;;;7.30;99.90;;;;;;5053886;28;20505;-87
2021/11/15 07:58:03;;;;;;;30.20;13.23;;;7.40;99.90;;;;;;5074569;28;20173;-86
2021/11/15 08:00:29;;;;;;;28.73;12.05;;;7.40;99.90;;;;;;5074828;28;20904;-85
2021/11/15 08:02:55;;;;;;;37.88;14.57;;;7.40;99.90;;;;;;5055558;28;20211;-83
2021/11/15 08:05:22;;;;;;;29.63;14.03;;;7.10;99.90;;;;;;5075511;28;20196;-83
2021/11/15 08:07:48;;;;;;;31.90;12.75;;;7.10;99.90;;;;;;5077180;28;20176;-82
2021/11/15 08:10:16;;;;;;;23.40;13.23;;;7.10;99.90;;;;;;5078439;28;20187;-85
2021/11/15 08:12:44;;;;;;;30.23;11.98;;;7.20;99.90;;;;;;5076728;28;20267;-84
2021/11/15 08:15:16;;;;;;;22.33;11.32;;;7.10;99.90;;;;;;5076383;28;20578;-81
2021/11/15 08:17:45;;;;;;;28.88;11.70;;;7.20;99.90;;;;;;5077396;28;20693;-82
2021/11/15 08:20:14;;;;;;;23.60;10.88;;;7.40;99.90;;;;;;5078965;28;20180;-83
2021/11/15 08:22:40;;;;;;;24.88;11.50;;;7.50;99.90;;;;;;5077003;28;20192;-85
2021/11/15 08:25:44;;;;;;;31.98;12.25;;;7.60;99.90;;;;;;5078322;28;20574;-85
2021/11/15 08:28:10;;;;;;;27.38;13.25;;;7.70;99.90;;;;;;5078468;28;20178;-85
2021/11/15 08:30:38;;;;;;;25.60;11.60;;;7.20;99.90;;;;;;5062619;28;20175;-85
2021/11/15 08:33:05;;;;;;;28.55;12.30;;;7.40;99.90;;;;;;5080365;28;20265;-84
2021/11/15 08:35:31;;;;;;;29.20;12.00;;;7.40;99.90;;;;;;5080902;28;20188;-85
2021/11/15 08:38:22;;;;;;;29.58;11.63;;;7.40;99.90;;;;;;5082627;28;20179;-84
2021/11/15 08:40:50;;;;;;;34.67;11.98;;;7.00;99.90;;;;;;5082754;28;20164;-84
2021/11/15 08:43:18;;;;;;;24.55;11.43;;;7.30;99.90;;;;;;5091130;28;20240;-85
2021/11/15 08:45:43;;;;;;;24.40;11.48;;;7.40;99.90;;;;;;5093247;28;20188;-85
2021/11/15 08:48:09;;;;;;;26.00;11.20;;;7.20;99.90;;;;;;5096858;28;20218;-85
2021/11/15 08:50:36;;;;;;;29.53;12.07;;;7.30;99.90;;;;;;5094254;28;20179;-85
2021/11/15 08:53:02;;;;;;;23.80;11.40;;;7.50;99.90;;;;;;5077494;28;20426;-86
2021/11/15 08:55:30;;;;;;;27.35;11.48;;;7.40;99.90;;;;;;5078144;28;20495;-84
2021/11/15 08:57:57;;;;;;;26.50;11.20;;;7.50;99.90;;;;;;5077665;28;20229;-84
2021/11/15 09:00:23;;;;;;;19.52;9.95;;;7.10;99.90;;;;;;5059859;28;20187;-84
2021/11/15 09:02:49;;;;;;;20.97;12.00;;;7.20;99.90;;;;;;5076230;28;20200;-83
2021/11/15 09:05:15;;;;;;;25.73;11.30;;;6.90;99.90;;;;;;5076680;28;20439;-84
2021/11/15 09:07:41;;;;;;;27.23;13.30;;;6.80;99.90;;;;;;5076249;28;20180;-82
2021/11/15 09:10:10;;;;;;;30.10;13.17;;;6.90;99.90;;;;;;5077664;28;20173;-82
2021/11/15 09:12:38;;;;;;;31.77;13.70;;;6.80;99.90;;;;;;5075689;28;20615;-83
2021/11/15 09:15:06;;;;;;;28.60;12.77;;;6.70;99.90;;;;;;5076903;28;20204;-85
2021/11/15 09:17:32;;;;;;;22.23;10.13;;;6.70;99.90;;;;;;5076715;28;20176;-85
2021/11/15 09:19:58;;;;;;;25.70;11.47;;;6.80;99.90;;;;;;5077876;28;20658;-86
2021/11/15 09:22:24;;;;;;;29.57;11.17;;;6.80;99.90;;;;;;5077979;28;20243;-85
2021/11/15 09:24:50;;;;;;;21.48;10.75;;;7.10;99.90;;;;;;5060639;28;20203;-86
2021/11/15 09:27:17;;;;;;;30.52;11.82;;;7.10;99.90;;;;;;5076165;28;20222;-85
2021/11/15 09:29:46;;;;;;;33.65;12.80;;;7.30;99.90;;;;;;5061040;28;20422;-85
2021/11/15 09:32:12;;;;;;;25.50;11.23;;;7.30;99.90;;;;;;5076479;28;20176;-84
2021/11/15 09:34:40;;;;;;;20.95;9.55;;;7.10;99.90;;;;;;5075754;28;20204;-84
2021/11/15 09:37:12;;;;;;;35.38;13.43;;;7.00;99.90;;;;;;5075481;28;20263;-84
2021/11/15 09:39:39;;;;;;;33.13;12.00;;;7.20;99.90;;;;;;5076353;28;20168;-84
2021/11/15 09:42:05;;;;;;;32.17;13.82;;;7.40;99.90;;;;;;5076135;28;20200;-86
2021/11/15 09:44:31;;;;;;;29.50;11.60;;;7.40;99.90;;;;;;5075102;28;20221;-87
2021/11/15 09:46:59;;;;;;;27.25;12.52;;;7.20;99.90;;;;;;5059973;28;20426;-86
2021/11/15 09:49:25;;;;;;;26.02;11.43;;;7.00;99.90;;;;;;5059552;28;20176;-87
2021/11/15 09:51:50;;;;;;;29.87;12.83;;;7.00;99.90;;;;;;5077593;28;20180;-86
2021/11/15 09:54:17;;;;;;;23.93;11.00;;;7.10;99.90;;;;;;5076716;28;20438;-84
2021/11/15 09:56:43;;;;;;;27.13;10.70;;;7.00;99.90;;;;;;5076867;28;20210;-84
2021/11/15 09:59:13;;;;;;;35.22;14.30;;;7.00;99.90;;;;;;5077943;28;20230;-85
2021/11/15 10:01:46;;;;;;;27.17;12.90;;;7.10;99.90;;;;;;5078364;28;20211;-85
2021/11/15 10:04:13;;;;;;;37.65;15.55;;;7.10;99.90;;;;;;5077114;28;20180;-86
2021/11/15 10:06:40;;;;;;;31.52;12.38;;;7.30;99.90;;;;;;5078543;28;20160;-86
2021/11/15 10:09:06;;;;;;;33.15;13.05;;;7.40;99.90;;;;;;5076441;28;20172;-86
2021/11/15 10:11:45;;;;;;;32.00;11.90;;;7.50;99.90;;;;;;5075316;28;20278;-87
2021/11/15 10:14:12;;;;;;;27.88;11.65;;;7.60;99.90;;;;;;5059849;28;20201;-89
2021/11/15 10:16:37;;;;;;;29.40;12.85;;;7.40;99.90;;;;;;5077170;28;20263;-86
2021/11/15 10:19:46;;;;;;;23.87;11.07;;;7.50;99.90;;;;;;5086009;28;20179;-92
2021/11/15 10:22:12;;;;;;;30.23;11.82;;;7.50;99.90;;;;;;5082155;28;20223;-92
2021/11/15 10:25:18;;;;;;;28.23;13.67;;;7.30;99.90;;;;;;5088681;28;20286;-93
2021/11/15 10:28:33;;;;;;;20.95;10.43;;;7.40;99.90;;;;;;5089112;28;20204;-92
2021/11/15 10:32:03;;;;;;;;;;;;;;;;;;;;;
2021/11/15 10:34:57;;;;;;;;;;;;;;;;;;;;;
2021/11/15 10:42:07;;;;;;;;;;;;;;;;;;;;;
2021/11/15 10:48:46;;;;;;;;;;;;;;;;;;;;;
2021/11/15 15:42:03;;;;;;;32.22;13.13;;;6.60;99.90;;;;;;5046925;28;20699;-84
2021/11/15 15:44:57;;;;;;;37.67;14.10;;;7.10;99.90;;;;;;5026464;28;20198;-85
2021/11/15 15:47:27;;;;;;;32.33;13.50;;;7.40;99.90;;;;;;5043614;28;20253;-87
2021/11/15 15:49:57;;;;;;;29.15;13.25;;;7.10;99.90;;;;;;5056873;28;20176;-87
2021/11/15 15:52:22;;;;;;;26.70;12.52;;;6.80;99.90;;;;;;5042075;28;20176;-86
2021/11/15 15:54:48;;;;;;;23.30;12.30;;;6.70;99.90;;;;;;5044019;28;20283;-86
2021/11/15 15:57:24;;;;;;;28.90;15.67;;;6.70;99.90;;;;;;5043445;28;20184;-87
2021/11/15 15:59:50;;;;;;;32.85;13.13;;;6.70;99.90;;;;;;5042794;28;20173;-86
2021/11/15 16:02:27;;;;;;;32.10;13.63;;;6.80;99.90;;;;;;5024044;28;20240;-87
2021/11/15 16:16:35;;;;;;;29.13;12.38;;;6.80;99.90;;;;;;4976623;28;20234;-88
2021/11/15 16:19:03;;;;;;;31.88;14.85;;;7.10;99.90;;;;;;5011024;28;20188;-85
2021/11/15 16:21:34;;;;;;;34.05;13.55;;;7.20;99.90;;;;;;5047114;28;20172;-85
2021/11/15 16:24:12;;;;;;;32.58;12.57;;;7.00;99.90;;;;;;5034814;28;20177;-85
2021/11/15 16:26:38;;;;;;;26.88;12.10;;;7.10;99.90;;;;;;5045089;28;20184;-87
2021/11/15 16:29:10;;;;;;;30.25;13.48;;;7.10;99.90;;;;;;5027079;28;20192;-88
2021/11/15 16:31:36;;;;;;;31.45;14.40;;;7.10;99.90;;;;;;5026502;28;20177;-87
2021/11/15 16:34:05;;;;;;;32.00;13.60;;;6.90;99.90;;;;;;5037162;28;20278;-86
2021/11/15 16:36:37;;;;;;;28.85;13.82;;;6.70;99.90;;;;;;5038136;28;20427;-86
2021/11/15 16:39:09;;;;;;;32.65;13.73;;;6.90;99.90;;;;;;5023326;28;20188;-86
2021/11/15 16:41:35;;;;;;;29.38;13.93;;;6.80;99.90;;;;;;5052884;28;20240;-85
2021/11/15 16:44:03;;;;;;;29.27;12.80;;;6.90;99.90;;;;;;5045082;28;20195;-87
2021/11/15 16:46:34;;;;;;;40.25;13.98;;;7.00;99.90;;;;;;5033235;28;20446;-87
2021/11/15 16:49:00;;;;;;;36.25;13.43;;;7.10;99.90;;;;;;5023972;28;20181;-87
2021/11/15 16:51:27;;;;;;;25.63;12.50;;;7.00;99.90;;;;;;5042940;28;20287;-86
2021/11/15 16:53:55;;;;;;;39.58;15.23;;;7.20;99.90;;;;;;5039790;28;20196;-87
2021/11/15 16:56:23;;;;;;;29.20;13.48;;;7.20;99.90;;;;;;5022059;28;20207;-85
2021/11/15 16:58:49;;;;;;;25.83;13.18;;;6.90;99.90;;;;;;5005688;28;20177;-86
2021/11/15 17:01:15;;;;;;;30.83;15.07;;;7.10;99.90;;;;;;5020383;28;20255;-84
2021/11/15 17:03:42;;;;;;;38.75;14.88;;;7.10;99.90;;;;;;5019394;28;20172;-84
2021/11/15 17:06:09;;;;;;;34.90;15.07;;;7.20;99.90;;;;;;5019585;28;20649;-85
2021/11/15 17:08:36;;;;;;;26.52;14.30;;;7.30;99.90;;;;;;5019652;28;20173;-85
2021/11/15 17:11:06;;;;;;;28.52;13.27;;;7.30;99.90;;;;;;5020484;28;20207;-86
2021/11/15 17:13:36;;;;;;;33.25;15.40;;;7.40;99.90;;;;;;5020207;28;20185;-86
2021/11/15 17:16:04;;;;;;;30.20;14.80;;;7.20;99.90;;;;;;5023612;28;20506;-85
2021/11/15 17:18:36;;;;;;;30.55;14.25;;;7.20;99.90;;;;;;5025949;28;20173;-85
2021/11/15 17:21:02;;;;;;;23.42;12.90;;;7.00;99.90;;;;;;5043442;28;20227;-86
2021/11/15 17:23:30;;;;;;;28.38;12.38;;;6.60;99.90;;;;;;5044021;28;20211;-86
2021/11/15 17:26:00;;;;;;;27.08;12.85;;;6.50;99.90;;;;;;5044776;28;20188;-86
2021/11/15 17:28:27;;;;;;;28.23;14.00;;;6.60;99.90;;;;;;5041967;28;20169;-85
2021/11/15 17:30:53;;;;;;;36.25;14.57;;;6.80;99.90;;;;;;5041560;28;20262;-85
2021/11/15 17:33:28;;;;;;;34.83;15.70;;;7.00;99.90;;;;;;5051705;28;20252;-87
2021/11/15 17:35:57;;;;;;;29.20;13.50;;;6.90;99.90;;;;;;5021331;28;20219;-88
2021/11/15 17:38:23;;;;;;;27.88;13.38;;;7.00;99.90;;;;;;5021027;28;20204;-87
2021/11/15 17:40:49;;;;;;;26.13;13.50;;;7.00;99.90;;;;;;5049628;28;20168;-88
2021/11/15 17:43:19;;;;;;;23.08;13.30;;;7.10;99.90;;;;;;5031740;28;20467;-86
2021/11/15 17:45:54;;;;;;;29.08;12.45;;;6.80;99.90;;;;;;5036583;28;20196;-86
2021/11/15 17:48:22;;;;;;;24.83;12.40;;;6.70;99.90;;;;;;5030377;28;20197;-86
2021/11/15 17:50:57;;;;;;;28.15;13.27;;;6.50;99.90;;;;;;5020722;28;20185;-89
2021/11/15 17:53:34;;;;;;;32.50;15.15;;;6.60;99.90;;;;;;5019764;28;20181;-86
2021/11/15 17:58:43;;;;;;;24.17;11.80;;;6.90;99.90;;;;;;5038499;28;20170;-85
2021/11/15 18:01:12;;;;;;;23.05;12.73;;;7.00;99.90;;;;;;5017182;28;20193;-87